Time;durP1;ratioP1;P1;durP2;ratioP2;P2;SDS_P1;SDS_P2;PMS_P1;PMS_P2;Temp;Humidity;BMP_temperature;BMP_pressure;BME280_temperature;BME280_humidity;BME280_pressure;Samples;Min_cycle;Max_cycle;Signal;HPM_P1;HPM_P2
2022/02/24 00:00:08;;;;;;;;;;;;;;;6.14;71.33;100862.88;1752295;81;20170;-79
2022/02/24 00:02:34;;;;;;;;;;;;;;;6.10;71.40;100857.84;1761762;81;20470;-79
2022/02/24 00:04:59;;;;;;;;;;;;;;;6.08;71.47;100859.75;1754361;80;21086;-80
2022/02/24 00:07:25;;;;;;;;;;;;;;;6.04;71.40;100859.59;1753575;80;20157;-78
2022/02/24 00:09:51;;;;;;;;;;;;;;;6.00;71.51;100858.16;1750937;81;20355;-78
2022/02/24 00:12:16;;;;;;;;;;;;;;;6.04;71.30;100860.91;1751657;80;20171;-79
2022/02/24 00:14:42;;;;;;;;;;;;;;;6.07;71.23;100860.69;1753944;81;20125;-77
2022/02/24 00:17:08;;;;;;;;;;;;;;;6.02;71.52;100868.05;1751670;81;21099;-78
2022/02/24 00:19:34;;;;;;;;;;;;;;;5.97;71.51;100864.09;1779381;79;20236;-78
2022/02/24 00:21:59;;;;;;;;;;;;;;;5.90;71.58;100863.19;1747829;80;20247;-80
2022/02/24 00:24:25;;;;;;;;;;;;;;;5.74;72.25;100864.72;1747251;80;21138;-78
2022/02/24 00:26:51;;;;;;;;;;;;;;;5.88;71.73;100864.23;1746739;80;20145;-80
2022/02/24 00:29:17;;;;;;;;;;;;;;;5.76;72.00;100867.23;1760503;80;21235;-79
2022/02/24 00:31:43;;;;;;;;;;;;;;;5.74;72.14;100862.09;1759463;80;20193;-78
2022/02/24 00:34:09;;;;;;;;;;;;;;;5.83;71.90;100866.34;1758876;79;20172;-79
2022/02/24 00:36:34;;;;;;;;;;;;;;;5.74;72.07;100864.72;1758640;80;20568;-80
2022/02/24 00:39:00;;;;;;;;;;;;;;;5.66;72.28;100869.66;1763679;80;20180;-78
2022/02/24 00:41:26;;;;;;;;;;;;;;;5.52;72.74;100867.17;1761269;79;21067;-78
2022/02/24 00:43:51;;;;;;;;;;;;;;;5.52;72.92;100861.93;1762253;80;20161;-78
2022/02/24 00:46:17;;;;;;;;;;;;;;;5.57;72.78;100866.37;1753137;79;20483;-78
2022/02/24 00:48:42;;;;;;;;;;;;;;;5.48;73.21;100865.69;1769490;80;20781;-78
2022/02/24 00:51:08;;;;;;;;;;;;;;;5.53;73.21;100865.75;1764329;80;20131;-78
2022/02/24 00:53:33;;;;;;;;;;;;;;;5.46;73.51;100870.20;1764521;80;21170;-78
2022/02/24 00:55:59;;;;;;;;;;;;;;;5.42;73.69;100863.50;1767400;80;20138;-78
2022/02/24 00:58:26;;;;;;;;;;;;;;;5.33;74.37;100868.88;1768216;80;20172;-77
2022/02/24 01:00:55;;;;;;;;;;;;;;;5.09;74.73;100866.98;1753572;80;20121;-76
2022/02/24 01:03:20;;;;;;;;;;;;;;;5.06;75.05;100869.80;1760950;79;20189;-77
2022/02/24 01:05:46;;;;;;;;;;;;;;;5.08;75.24;100868.39;1767420;80;21901;-76
2022/02/24 01:08:12;;;;;;;;;;;;;;;5.11;75.18;100865.57;1762968;79;20178;-75
2022/02/24 01:10:38;;;;;;;;;;;;;;;5.03;75.50;100864.33;1762351;79;20125;-76
2022/02/24 01:13:03;;;;;;;;;;;;;;;4.89;76.23;100865.69;1757663;80;20534;-78
2022/02/24 01:15:29;;;;;;;;;;;;;;;4.83;76.34;100863.48;1756530;80;20231;-78
2022/02/24 01:17:55;;;;;;;;;;;;;;;4.92;76.26;100863.35;1761710;79;21141;-78
2022/02/24 01:20:20;;;;;;;;;;;;;;;4.83;76.33;100856.94;1762578;80;20192;-77
2022/02/24 01:22:46;;;;;;;;;;;;;;;4.71;76.83;100859.05;1769191;79;20184;-79
2022/02/24 01:25:11;;;;;;;;;;;;;;;4.39;78.33;100860.69;1762189;80;20151;-76
2022/02/24 01:27:37;;;;;;;;;;;;;;;4.22;79.10;100862.59;1770015;80;20139;-77
2022/02/24 01:30:03;;;;;;;;;;;;;;;4.21;79.25;100865.31;1767883;79;21159;-76
2022/02/24 01:32:29;;;;;;;;;;;;;;;4.25;79.31;100867.63;1772820;80;20647;-76
2022/02/24 01:34:58;;;;;;;;;;;;;;;4.33;78.90;100872.85;1770087;80;20254;-76
2022/02/24 01:37:22;;;;;;;;;;;;;;;4.21;79.23;100868.78;1773786;79;20991;-77
2022/02/24 01:39:47;;;;;;;;;;;;;;;4.21;79.04;100874.01;1776672;80;20135;-77
2022/02/24 01:42:13;;;;;;;;;;;;;;;4.26;79.10;100869.80;1772310;80;21084;-76
2022/02/24 01:44:40;;;;;;;;;;;;;;;4.27;79.19;100873.63;1772444;80;20154;-76
2022/02/24 01:47:06;;;;;;;;;;;;;;;4.35;78.81;100869.66;1766274;80;20321;-77
2022/02/24 01:49:32;;;;;;;;;;;;;;;4.39;78.62;100873.77;1766522;79;20216;-78
2022/02/24 01:51:58;;;;;;;;;;;;;;;4.39;78.65;100869.84;1771179;80;20151;-77
2022/02/24 01:54:23;;;;;;;;;;;;;;;4.25;78.90;100871.55;1768273;80;21057;-78
2022/02/24 01:56:49;;;;;;;;;;;;;;;4.25;78.95;100872.86;1777343;79;20476;-77
2022/02/24 01:59:14;;;;;;;;;;;;;;;4.21;79.10;100879.69;1770352;80;20201;-79
2022/02/24 02:01:40;;;;;;;;;;;;;;;4.17;79.17;100877.74;1772988;79;20149;-76
2022/02/24 02:04:06;;;;;;;;;;;;;;;3.92;80.03;100881.89;1769515;79;20268;-77
2022/02/24 02:06:32;;;;;;;;;;;;;;;4.08;79.77;100880.94;1763379;80;21158;-78
2022/02/24 02:08:57;;;;;;;;;;;;;;;4.05;79.85;100881.13;1774768;79;20749;-77
2022/02/24 02:11:23;;;;;;;;;;;;;;;4.12;79.66;100874.59;1777025;79;20189;-76
2022/02/24 02:13:48;;;;;;;;;;;;;;;3.91;80.32;100885.42;1764760;80;20921;-77
2022/02/24 02:16:15;;;;;;;;;;;;;;;4.00;80.18;100882.72;1775593;79;20157;-77
2022/02/24 02:18:41;;;;;;;;;;;;;;;4.10;80.04;100889.51;1769573;80;21288;-77
2022/02/24 02:21:07;;;;;;;;;;;;;;;4.17;79.53;100882.97;1767898;80;20193;-77
2022/02/24 02:23:33;;;;;;;;;;;;;;;4.12;79.68;100879.81;1765325;80;20176;-76
2022/02/24 02:25:58;;;;;;;;;;;;;;;4.19;79.42;100873.25;1758832;80;20112;-76
2022/02/24 02:28:24;;;;;;;;;;;;;;;4.24;79.05;100869.89;1760670;79;20334;-76
2022/02/24 02:30:50;;;;;;;;;;;;;;;4.36;78.77;100870.05;1762162;79;21899;-77
2022/02/24 02:33:15;;;;;;;;;;;;;;;4.38;78.41;100862.92;1766235;80;20209;-76
2022/02/24 02:35:41;;;;;;;;;;;;;;;4.46;78.30;100864.60;1762149;79;20157;-78
2022/02/24 02:38:07;;;;;;;;;;;;;;;4.51;78.43;100862.52;1760035;80;20128;-78
2022/02/24 02:40:37;;;;;;;;;;;;;;;4.63;77.95;100866.95;1767535;80;20445;-76
2022/02/24 02:43:04;;;;;;;;;;;;;;;4.61;77.31;100866.19;1758470;80;20156;-78
2022/02/24 02:45:29;;;;;;;;;;;;;;;4.91;76.59;100868.20;1762574;79;20170;-77
2022/02/24 02:47:55;;;;;;;;;;;;;;;4.98;76.23;100869.00;1754609;80;20248;-77
2022/02/24 02:50:21;;;;;;;;;;;;;;;4.96;76.17;100866.97;1771423;80;20452;-77
2022/02/24 02:52:46;;;;;;;;;;;;;;;5.19;75.37;100858.06;1764915;80;20194;-77
2022/02/24 02:55:12;;;;;;;;;;;;;;;5.15;75.09;100855.27;1766941;80;21149;-77
2022/02/24 02:57:39;;;;;;;;;;;;;;;5.20;74.65;100857.09;1765045;80;20287;-77
2022/02/24 03:00:07;;;;;;;;;;;;;;;5.24;74.61;100854.65;1760900;80;20175;-77
2022/02/24 03:02:32;;;;;;;;;;;;;;;5.06;74.90;100855.41;1762540;80;21131;-77
2022/02/24 03:04:58;;;;;;;;;;;;;;;5.03;74.97;100863.47;1760167;80;20270;-77
2022/02/24 03:07:24;;;;;;;;;;;;;;;5.06;75.04;100862.44;1765234;80;21170;-76
2022/02/24 03:09:50;;;;;;;;;;;;;;;5.03;74.81;100859.09;1767060;80;21034;-76
2022/02/24 03:12:16;;;;;;;;;;;;;;;5.06;74.90;100856.72;1759712;80;20165;-78
2022/02/24 03:14:41;;;;;;;;;;;;;;;5.07;74.61;100855.78;1762682;80;20496;-76
2022/02/24 03:17:08;;;;;;;;;;;;;;;4.96;74.69;100855.20;1762947;80;20628;-76
2022/02/24 03:19:33;;;;;;;;;;;;;;;4.98;74.83;100850.69;1762230;80;21078;-76
2022/02/24 03:21:59;;;;;;;;;;;;;;;4.91;74.90;100850.75;1768786;80;20194;-79
2022/02/24 03:24:24;;;;;;;;;;;;;;;4.97;74.70;100849.03;1769648;80;20603;-76
2022/02/24 03:26:50;;;;;;;;;;;;;;;4.96;74.87;100843.90;1772490;80;20131;-77
2022/02/24 03:29:16;;;;;;;;;;;;;;;4.96;74.69;100848.65;1765253;79;20183;-76
2022/02/24 03:31:42;;;;;;;;;;;;;;;4.96;74.77;100847.34;1775266;80;21063;-78
2022/02/24 03:34:07;;;;;;;;;;;;;;;4.95;74.74;100839.59;1774798;80;20208;-77
2022/02/24 03:36:33;;;;;;;;;;;;;;;4.82;74.92;100835.66;1769577;80;20181;-76
2022/02/24 03:38:59;;;;;;;;;;;;;;;4.91;74.87;100841.59;1778191;80;20356;-77
2022/02/24 03:41:24;;;;;;;;;;;;;;;4.84;75.04;100835.07;1772057;80;20202;-76
2022/02/24 03:43:50;;;;;;;;;;;;;;;4.84;75.15;100842.44;1773693;80;21148;-79
2022/02/24 03:46:16;;;;;;;;;;;;;;;4.89;74.91;100842.62;1776032;80;20984;-77
2022/02/24 03:48:42;;;;;;;;;;;;;;;4.91;74.86;100837.66;1776435;79;20129;-76
2022/02/24 03:51:07;;;;;;;;;;;;;;;4.96;74.60;100836.87;1782885;80;20427;-79
2022/02/24 03:53:33;;;;;;;;;;;;;;;4.85;74.90;100835.45;1775522;80;20192;-77
2022/02/24 03:55:58;;;;;;;;;;;;;;;4.89;74.80;100836.08;1769334;80;21039;-77
2022/02/24 03:58:24;;;;;;;;;;;;;;;4.89;74.72;100842.14;1771775;80;20182;-76
2022/02/24 04:00:49;;;;;;;;;;;;;;;4.81;74.76;100837.89;1767138;80;20160;-77
2022/02/24 04:03:15;;;;;;;;;;;;;;;4.85;74.71;100836.77;1778184;80;20441;-76
2022/02/24 04:05:41;;;;;;;;;;;;;;;4.88;74.79;100842.23;1762182;80;20275;-78
2022/02/24 04:08:06;;;;;;;;;;;;;;;4.87;74.80;100841.41;1779467;80;21336;-77
2022/02/24 04:10:32;;;;;;;;;;;;;;;4.74;75.17;100843.16;1773997;80;20812;-76
2022/02/24 04:12:58;;;;;;;;;;;;;;;4.86;74.93;100846.27;1780931;80;20139;-78
2022/02/24 04:15:23;;;;;;;;;;;;;;;4.87;74.84;100846.65;1774802;80;20531;-77
2022/02/24 04:17:49;;;;;;;;;;;;;;;4.99;74.65;100851.06;1778384;80;20169;-77
2022/02/24 04:20:14;;;;;;;;;;;;;;;5.07;74.23;100840.08;1776104;80;21019;-77
2022/02/24 04:22:40;;;;;;;;;;;;;;;4.98;73.86;100845.45;1781841;79;20807;-77
2022/02/24 04:25:06;;;;;;;;;;;;;;;5.04;74.24;100845.04;1754507;80;20137;-77
2022/02/24 04:27:32;;;;;;;;;;;;;;;4.95;73.94;100840.42;1770903;79;20213;-77
2022/02/24 04:29:57;;;;;;;;;;;;;;;4.94;74.03;100838.77;1783177;78;20477;-77
2022/02/24 04:32:23;;;;;;;;;;;;;;;5.00;73.91;100825.27;1755648;80;21870;-77
2022/02/24 04:34:48;;;;;;;;;;;;;;;4.98;73.94;100836.77;1757771;80;20181;-76
2022/02/24 04:37:14;;;;;;;;;;;;;;;5.00;73.73;100837.05;1756935;80;20169;-77
2022/02/24 04:39:40;;;;;;;;;;;;;;;5.08;73.49;100839.59;1754706;80;20457;-77
2022/02/24 04:42:06;;;;;;;;;;;;;;;4.99;73.54;100834.05;1747161;80;20183;-78
2022/02/24 04:44:31;;;;;;;;;;;;;;;5.04;73.48;100829.33;1756560;80;21073;-77
2022/02/24 04:46:57;;;;;;;;;;;;;;;5.01;73.37;100833.47;1757865;80;20181;-76
2022/02/24 04:49:22;;;;;;;;;;;;;;;4.97;73.41;100827.23;1749215;80;20538;-79
2022/02/24 04:51:48;;;;;;;;;;;;;;;4.88;73.52;100828.70;1759539;80;20941;-77
2022/02/24 04:54:13;;;;;;;;;;;;;;;4.83;73.85;100828.16;1758784;80;20169;-79
2022/02/24 04:56:39;;;;;;;;;;;;;;;4.84;73.94;100831.15;1757079;80;21835;-77
2022/02/24 04:59:04;;;;;;;;;;;;;;;4.80;74.12;100834.45;1756287;80;20149;-79
2022/02/24 05:01:30;;;;;;;;;;;;;;;4.82;74.05;100831.73;1758378;80;20142;-76
2022/02/24 05:03:56;;;;;;;;;;;;;;;4.81;73.96;100828.73;1754280;80;20147;-77
2022/02/24 05:06:21;;;;;;;;;;;;;;;4.54;74.60;100832.23;1750115;80;20459;-77
2022/02/24 05:08:47;;;;;;;;;;;;;;;4.50;74.73;100828.14;1785453;78;21098;-76
2022/02/24 05:11:13;;;;;;;;;;;;;;;4.49;74.93;100819.94;1784287;80;20863;-76
2022/02/24 05:13:38;;;;;;;;;;;;;;;4.48;75.06;100837.88;1787204;79;20131;-76
2022/02/24 05:16:04;;;;;;;;;;;;;;;4.43;75.15;100839.95;1787417;78;20175;-76
2022/02/24 05:18:31;;;;;;;;;;;;;;;4.51;74.90;100828.52;1755569;81;20183;-77
2022/02/24 05:20:56;;;;;;;;;;;;;;;4.61;74.61;100834.80;1780054;80;21107;-76
2022/02/24 05:23:22;;;;;;;;;;;;;;;4.68;74.31;100830.86;1752165;80;20131;-78
2022/02/24 05:25:47;;;;;;;;;;;;;;;4.74;74.05;100830.07;1757281;79;21264;-79
2022/02/24 05:28:13;;;;;;;;;;;;;;;4.76;73.99;100829.52;1773993;80;20506;-78
2022/02/24 05:30:39;;;;;;;;;;;;;;;4.59;74.21;100826.23;1771259;79;20159;-76
2022/02/24 05:33:05;;;;;;;;;;;;;;;4.73;76.63;100828.42;1771574;79;21132;-78
2022/02/24 05:35:30;;;;;;;;;;;;;;;4.77;76.27;100832.48;1768905;80;20199;-77
2022/02/24 05:37:56;;;;;;;;;;;;;;;4.81;75.27;100835.28;1771986;80;20199;-78
2022/02/24 05:40:22;;;;;;;;;;;;;;;4.63;74.75;100830.33;1769225;80;20260;-79
2022/02/24 05:42:48;;;;;;;;;;;;;;;4.57;75.14;100837.27;1769828;80;20569;-81
2022/02/24 05:45:13;;;;;;;;;;;;;;;4.55;75.05;100831.76;1754904;80;21792;-77
2022/02/24 05:47:39;;;;;;;;;;;;;;;4.56;75.19;100842.12;1764472;80;20139;-78
2022/02/24 05:50:07;;;;;;;;;;;;;;;4.48;75.07;100834.77;1752192;80;20222;-79
2022/02/24 05:52:34;;;;;;;;;;;;;;;4.47;75.19;100840.97;1756573;80;20117;-79
2022/02/24 05:55:00;;;;;;;;;;;;;;;4.57;75.07;100842.95;1761056;79;20201;-79
2022/02/24 05:57:26;;;;;;;;;;;;;;;4.47;75.25;100844.03;1758432;79;21177;-81
2022/02/24 05:59:52;;;;;;;;;;;;;;;4.42;75.52;100839.58;1760196;80;20597;-81
2022/02/24 06:02:18;;;;;;;;;;;;;;;4.38;75.74;100839.39;1764584;79;20239;-79
2022/02/24 06:04:43;;;;;;;;;;;;;;;4.33;75.82;100838.38;1764094;80;20178;-79
2022/02/24 06:07:09;;;;;;;;;;;;;;;4.37;76.17;100840.34;1754461;80;20244;-80
2022/02/24 06:09:34;;;;;;;;;;;;;;;4.39;75.82;100837.98;1761812;80;21027;-81
2022/02/24 06:12:00;;;;;;;;;;;;;;;4.50;75.64;100832.06;1765909;79;20853;-81
2022/02/24 06:14:26;;;;;;;;;;;;;;;4.47;75.79;100841.41;1756255;80;20168;-80
2022/02/24 06:16:51;;;;;;;;;;;;;;;4.57;75.72;100840.33;1755512;79;20142;-81
2022/02/24 06:19:17;;;;;;;;;;;;;;;4.57;75.77;100846.42;1764049;79;20153;-82
2022/02/24 06:21:42;;;;;;;;;;;;;;;4.72;75.42;100848.97;1761062;80;21177;-80
2022/02/24 06:24:08;;;;;;;;;;;;;;;4.59;75.50;100839.30;1728573;80;20143;-78
2022/02/24 06:26:34;;;;;;;;;;;;;;;4.73;75.25;100842.80;1726435;81;20237;-77
2022/02/24 06:28:59;;;;;;;;;;;;;;;4.77;75.19;100844.27;1722998;81;20945;-77
2022/02/24 06:31:25;;;;;;;;;;;;;;;4.82;75.13;100842.20;1722242;81;20159;-79
2022/02/24 06:33:51;;;;;;;;;;;;;;;4.76;75.06;100843.91;1708891;81;21216;-77
2022/02/24 06:36:16;;;;;;;;;;;;;;;4.72;75.18;100841.13;1715092;83;20313;-77
2022/02/24 06:38:42;;;;;;;;;;;;;;;4.87;74.82;100850.57;1711578;83;20160;-77
2022/02/24 06:41:07;;;;;;;;;;;;;;;4.73;75.21;100844.11;1714339;83;20518;-77
2022/02/24 06:43:33;;;;;;;;;;;;;;;4.78;75.25;100843.33;1714619;82;20156;-78
2022/02/24 06:45:59;;;;;;;;;;;;;;;4.76;75.35;100842.60;1713524;82;21163;-77
2022/02/24 06:48:25;;;;;;;;;;;;;;;4.79;75.25;100842.41;1713481;82;20162;-78
2022/02/24 06:50:51;;;;;;;;;;;;;;;4.71;75.44;100844.66;1711863;82;20224;-77
2022/02/24 06:53:16;;;;;;;;;;;;;;;4.68;75.61;100844.42;1711121;83;20139;-79
2022/02/24 06:55:42;;;;;;;;;;;;;;;4.75;75.72;100837.81;1708960;83;20478;-77
2022/02/24 06:58:07;;;;;;;;;;;;;;;4.84;75.54;100837.69;1713649;83;21149;-78
2022/02/24 07:00:33;;;;;;;;;;;;;;;4.94;75.41;100843.14;1707039;83;20288;-78
2022/02/24 07:02:59;;;;;;;;;;;;;;;4.96;75.38;100842.11;1708520;83;20128;-77
2022/02/24 07:05:25;;;;;;;;;;;;;;;4.73;76.01;100842.33;1712407;83;20484;-78
2022/02/24 07:07:50;;;;;;;;;;;;;;;4.95;75.63;100837.80;1713121;82;21000;-79
2022/02/24 07:10:16;;;;;;;;;;;;;;;4.89;75.86;100842.14;1709405;83;21188;-78
2022/02/24 07:12:42;;;;;;;;;;;;;;;4.73;76.89;100841.02;1709753;82;20151;-77
2022/02/24 07:15:08;;;;;;;;;;;;;;;4.67;77.19;100837.02;1712396;83;20242;-77
2022/02/24 07:17:42;;;;;;;;;;;;;;;4.77;77.29;100840.33;1712771;83;20134;-78
2022/02/24 07:20:09;;;;;;;;;;;;;;;4.86;77.20;100838.41;1709762;83;20199;-78
2022/02/24 07:22:35;;;;;;;;;;;;;;;4.94;77.09;100830.05;1713966;81;20870;-77
2022/02/24 07:25:01;;;;;;;;;;;;;;;5.03;76.85;100825.06;1754719;80;20175;-77
2022/02/24 07:27:26;;;;;;;;;;;;;;;5.04;76.98;100824.09;1750168;80;20132;-78
2022/02/24 07:29:52;;;;;;;;;;;;;;;5.30;76.31;100824.56;1749274;81;20131;-77
2022/02/24 07:32:17;;;;;;;;;;;;;;;5.39;76.06;100824.80;1751976;81;20218;-78
2022/02/24 07:34:45;;;;;;;;;;;;;;;5.52;75.66;100825.25;1750634;81;21159;-80
2022/02/24 07:37:10;;;;;;;;;;;;;;;5.65;75.24;100823.44;1751713;80;20132;-78
2022/02/24 07:39:36;;;;;;;;;;;;;;;5.68;75.25;100827.63;1745444;81;20159;-78
2022/02/24 07:42:02;;;;;;;;;;;;;;;5.75;75.01;100821.85;1754648;81;20164;-77
2022/02/24 07:44:28;;;;;;;;;;;;;;;5.79;75.01;100832.12;1750560;81;20193;-76
2022/02/24 07:46:53;;;;;;;;;;;;;;;5.94;74.41;100833.66;1753797;81;21221;-79
2022/02/24 07:49:22;;;;;;;;;;;;;;;6.09;73.99;100833.91;1752079;80;20513;-79
2022/02/24 07:51:48;;;;;;;;;;;;;;;5.93;74.20;100834.59;1775279;80;20136;-78
2022/02/24 07:54:14;;;;;;;;;;;;;;;6.35;73.55;100832.95;1746870;80;20227;-79
2022/02/24 07:56:39;;;;;;;;;;;;;;;6.42;73.55;100836.33;1745504;80;20213;-78
2022/02/24 07:59:05;;;;;;;;;;;;;;;6.34;73.11;100828.20;1749822;80;21058;-80
2022/02/24 08:01:31;;;;;;;;;;;;;;;6.41;72.67;100825.95;1759801;79;20664;-79
2022/02/24 08:03:56;;;;;;;;;;;;;;;6.69;72.07;100818.66;1757619;80;20153;-78
2022/02/24 08:06:22;;;;;;;;;;;;;;;6.81;71.63;100813.33;1762117;80;20151;-78
2022/02/24 08:08:48;;;;;;;;;;;;;;;6.96;71.28;100810.03;1762667;80;20482;-78
2022/02/24 08:11:13;;;;;;;;;;;;;;;6.96;71.08;100805.23;1765578;80;21495;-78
2022/02/24 08:13:39;;;;;;;;;;;;;;;6.91;71.51;100806.89;1762586;80;20220;-79
2022/02/24 08:16:05;;;;;;;;;;;;;;;6.98;71.25;100805.98;1758464;80;20228;-79
2022/02/24 08:18:30;;;;;;;;;;;;;;;6.96;70.64;100801.30;1759328;80;20139;-78
2022/02/24 08:20:56;;;;;;;;;;;;;;;7.07;70.27;100800.02;1759813;80;20527;-78
2022/02/24 08:23:22;;;;;;;;;;;;;;;7.09;70.29;100801.22;1757578;80;21061;-78
2022/02/24 08:25:47;;;;;;;;;;;;;;;7.37;69.38;100792.03;1758967;80;20135;-78
2022/02/24 08:28:13;;;;;;;;;;;;;;;7.38;69.06;100792.41;1751725;80;20489;-79
2022/02/24 08:30:38;;;;;;;;;;;;;;;7.27;69.36;100787.13;1764196;80;20440;-82
2022/02/24 08:33:05;;;;;;;;;;;;;;;7.36;68.96;100786.41;1754021;80;20145;-78
2022/02/24 08:35:30;;;;;;;;;;;;;;;7.58;68.67;100782.93;1752824;80;21113;-79
2022/02/24 08:37:56;;;;;;;;;;;;;;;7.68;68.19;100781.25;1751476;80;20232;-79
2022/02/24 08:40:22;;;;;;;;;;;;;;;7.82;67.77;100772.27;1757876;80;20499;-78
2022/02/24 08:42:48;;;;;;;;;;;;;;;7.78;67.63;100769.52;1759530;80;20575;-78
2022/02/24 08:45:14;;;;;;;;;;;;;;;7.84;67.13;100763.77;1764276;80;20462;-77
2022/02/24 08:47:40;;;;;;;;;;;;;;;7.97;67.13;100763.64;1759526;80;21045;-77
2022/02/24 08:50:06;;;;;;;;;;;;;;;8.00;66.87;100753.33;1764951;80;20345;-77
2022/02/24 08:52:32;;;;;;;;;;;;;;;8.02;66.70;100751.43;1757064;80;20144;-77
2022/02/24 08:54:57;;;;;;;;;;;;;;;8.07;66.34;100750.56;1757270;80;20442;-77
2022/02/24 08:57:23;;;;;;;;;;;;;;;8.03;66.08;100741.25;1757102;80;20210;-77
2022/02/24 08:59:48;;;;;;;;;;;;;;;8.19;65.92;100743.48;1760384;80;21151;-77
2022/02/24 09:02:14;;;;;;;;;;;;;;;8.29;65.71;100734.34;1756943;80;20253;-77
2022/02/24 09:04:40;;;;;;;;;;;;;;;8.38;65.40;100740.16;1756383;80;21271;-77
2022/02/24 09:07:05;;;;;;;;;;;;;;;8.45;65.28;100742.64;1758602;80;20145;-77
2022/02/24 09:09:31;;;;;;;;;;;;;;;8.58;64.78;100732.77;1764954;80;20173;-77
2022/02/24 09:11:57;;;;;;;;;;;;;;;8.73;64.81;100731.97;1755678;80;21222;-77
2022/02/24 09:14:22;;;;;;;;;;;;;;;8.94;64.33;100727.16;1752368;80;20572;-77
2022/02/24 09:16:48;;;;;;;;;;;;;;;9.12;64.04;100727.36;1767172;80;20154;-77
2022/02/24 09:19:13;;;;;;;;;;;;;;;9.24;63.40;100722.34;1751645;80;20532;-77
2022/02/24 09:21:39;;;;;;;;;;;;;;;9.23;62.70;100714.11;1753617;80;20119;-78
2022/02/24 09:24:05;;;;;;;;;;;;;;;9.31;62.39;100702.89;1762800;79;21173;-78
2022/02/24 09:26:31;;;;;;;;;;;;;;;9.42;61.86;100704.59;1760330;80;20166;-78
2022/02/24 09:28:57;;;;;;;;;;;;;;;9.32;61.09;100694.00;1762584;79;20249;-78
2022/02/24 09:31:23;;;;;;;;;;;;;;;9.00;61.09;100687.61;1760626;80;20819;-78
2022/02/24 09:33:48;;;;;;;;;;;;;;;9.15;61.60;100682.30;1766985;80;20149;-78
2022/02/24 09:36:14;;;;;;;;;;;;;;;9.43;61.48;100677.24;1765541;80;20988;-78
2022/02/24 09:38:39;;;;;;;;;;;;;;;9.39;60.82;100671.91;1759809;79;21111;-79
2022/02/24 09:41:06;;;;;;;;;;;;;;;9.34;60.76;100666.55;1757040;79;20169;-78
2022/02/24 09:43:33;;;;;;;;;;;;;;;9.37;60.39;100662.82;1754736;80;20135;-79
2022/02/24 09:46:10;;;;;;;;;;;;;;;9.46;60.34;100663.33;1749095;80;20176;-78
2022/02/24 09:48:38;;;;;;;;;;;;;;;9.55;59.77;100659.02;1760441;80;21136;-77
2022/02/24 09:51:05;;;;;;;;;;;;;;;9.49;59.73;100658.25;1762470;79;20156;-77
2022/02/24 09:53:31;;;;;;;;;;;;;;;9.51;59.06;100645.78;1760867;80;20122;-77
2022/02/24 09:55:57;;;;;;;;;;;;;;;9.46;58.72;100653.24;1756626;79;21041;-77
2022/02/24 09:58:24;;;;;;;;;;;;;;;9.58;58.63;100653.47;1755563;79;20198;-76
2022/02/24 10:00:50;;;;;;;;;;;;;;;9.53;57.91;100650.42;1755886;80;21071;-77
2022/02/24 10:03:40;;;;;;;;;;;;;;;9.20;58.39;100651.13;1754572;80;20293;-77
2022/02/24 10:06:04;;;;;;;;;;;;;;;9.54;58.21;100637.59;1758446;80;20108;-77
2022/02/24 10:08:33;;;;;;;;;;;;;;;9.87;57.99;100628.92;1760673;80;20186;-77
2022/02/24 10:11:00;;;;;;;;;;;;;;;10.04;58.06;100617.66;1756076;80;20536;-77
2022/02/24 10:13:26;;;;;;;;;;;;;;;10.03;57.99;100617.30;1756726;79;21037;-78
2022/02/24 10:15:57;;;;;;;;;;;;;;;10.14;58.04;100607.56;1758809;79;20118;-78
2022/02/24 10:18:25;;;;;;;;;;;;;;;10.19;57.82;100605.33;1756402;80;20151;-77
2022/02/24 10:21:00;;;;;;;;;;;;;;;10.29;57.55;100605.33;1765029;80;20173;-77
2022/02/24 10:23:39;;;;;;;;;;;;;;;10.27;57.10;100598.86;1762821;79;20327;-78
2022/02/24 10:26:09;;;;;;;;;;;;;;;10.23;56.73;100588.23;1759165;80;21261;-77
2022/02/24 10:28:49;;;;;;;;;;;;;;;10.29;56.78;100590.30;1749346;80;20197;-77
2022/02/24 10:31:18;;;;;;;;;;;;;;;10.39;56.51;100588.52;1754771;80;20139;-77
2022/02/24 10:33:46;;;;;;;;;;;;;;;10.56;55.52;100579.47;1766749;80;20144;-78
2022/02/24 10:36:14;;;;;;;;;;;;;;;10.60;55.12;100568.97;1755659;80;20188;-77
2022/02/24 10:38:41;;;;;;;;;;;;;;;10.43;54.79;100567.92;1753133;79;21139;-78
2022/02/24 10:41:07;;;;;;;;;;;;;;;10.43;54.59;100563.14;1757296;80;40214;-76
2022/02/24 10:43:36;;;;;;;;;;;;;;;10.59;54.71;100556.73;1738996;80;20173;-77
2022/02/24 10:46:13;;;;;;;;;;;;;;;10.67;54.92;100556.00;1756420;80;20904;-77
2022/02/24 10:48:54;;;;;;;;;;;;;;;10.87;54.47;100547.48;1753921;79;20178;-77
2022/02/24 10:51:28;;;;;;;;;;;;;;;10.77;54.32;100533.84;1760195;80;22771;-77
2022/02/24 10:54:08;;;;;;;;;;;;;;;10.92;54.25;100536.82;1754064;79;20141;-77
2022/02/24 10:56:41;;;;;;;;;;;;;;;10.98;53.64;100530.09;1757342;80;20093;-76
2022/02/24 10:59:07;;;;;;;;;;;;;;;11.01;53.69;100525.83;1752084;79;20185;-78
2022/02/24 11:01:33;;;;;;;;;;;;;;;11.18;53.34;100518.07;1755349;80;20182;-77
2022/02/24 11:04:00;;;;;;;;;;;;;;;11.05;52.22;100516.62;1763215;79;21110;-78
2022/02/24 11:06:28;;;;;;;;;;;;;;;11.13;52.32;100506.62;1756814;80;20144;-78
2022/02/24 11:08:55;;;;;;;;;;;;;;;11.17;52.44;100508.00;1754959;80;20315;-78
2022/02/24 11:11:29;;;;;;;;;;;;;;;11.14;52.33;100502.52;1763186;80;20169;-78
2022/02/24 11:13:57;;;;;;;;;;;;;;;11.23;52.26;100506.54;1760997;80;20173;-77
2022/02/24 11:16:23;;;;;;;;;;;;;;;11.23;52.33;100495.97;1759750;79;21041;-78
2022/02/24 11:18:49;;;;;;;;;;;;;;;11.37;52.11;100487.48;1764580;80;20294;-78
2022/02/24 11:21:16;;;;;;;;;;;;;;;11.50;52.38;100483.96;1758010;79;20497;-77
2022/02/24 11:23:43;;;;;;;;;;;;;;;11.29;51.93;100482.14;1756004;80;20265;-79
2022/02/24 11:26:30;;;;;;;;;;;;;;;11.30;51.51;100470.59;1757991;81;20178;-79
2022/02/24 11:28:59;;;;;;;;;;;;;;;11.52;51.65;100465.80;1760847;81;20217;-79
2022/02/24 11:31:27;;;;;;;;;;;;;;;11.63;51.36;100460.25;1719231;81;20202;-79
2022/02/24 11:33:53;;;;;;;;;;;;;;;11.88;51.41;100452.46;1716587;82;20469;-78
2022/02/24 11:36:19;;;;;;;;;;;;;;;11.81;50.98;100450.44;1735612;81;20174;-78
2022/02/24 11:39:09;;;;;;;;;;;;;;;11.91;50.32;100440.23;1736123;81;20209;-78
2022/02/24 11:41:39;;;;;;;;;;;;;;;11.93;49.95;100431.67;1734414;81;21112;-79
2022/02/24 11:44:04;;;;;;;;;;;;;;;12.01;49.17;100417.17;1720319;81;20130;-79
2022/02/24 11:46:30;;;;;;;;;;;;;;;12.00;48.40;100420.80;1732216;81;20163;-80
2022/02/24 11:48:56;;;;;;;;;;;;;;;12.12;48.21;100412.91;1720917;83;20680;-79
2022/02/24 11:51:21;;;;;;;;;;;;;;;12.19;48.05;100405.96;1738387;82;20142;-80
2022/02/24 11:53:49;;;;;;;;;;;;;;;12.18;48.21;100397.70;1740658;80;22044;-80
2022/02/24 11:56:17;;;;;;;;;;;;;;;12.20;48.23;100385.63;1736706;82;20250;-79
2022/02/24 11:59:00;;;;;;;;;;;;;;;12.23;47.49;100387.95;1740189;81;20200;-79
2022/02/24 12:01:30;;;;;;;;;;;;;;;12.24;47.21;100376.86;1742806;81;20175;-79
2022/02/24 12:03:58;;;;;;;;;;;;;;;12.37;47.08;100384.67;1741488;80;20127;-79
2022/02/24 12:06:43;;;;;;;;;;;;;;;12.44;47.00;100366.81;1730735;81;21117;-79
2022/02/24 12:09:17;;;;;;;;;;;;;;;12.54;46.44;100370.16;1758683;80;20153;-79
2022/02/24 12:11:51;;;;;;;;;;;;;;;12.63;46.83;100370.50;1757853;80;20167;-78
2022/02/24 12:14:25;;;;;;;;;;;;;;;12.76;46.44;100354.09;1760837;80;20480;-80
2022/02/24 12:17:05;;;;;;;;;;;;;;;12.77;46.35;100347.81;1742371;80;20157;-79
2022/02/24 12:19:44;;;;;;;;;;;;;;;12.92;46.00;100344.80;1739784;80;21156;-79
2022/02/24 12:22:21;;;;;;;;;;;;;;;12.89;45.80;100342.48;1742393;82;20991;-78
2022/02/24 12:24:52;;;;;;;;;;;;;;;13.03;45.75;100338.84;1742079;82;20178;-79
2022/02/24 12:27:28;;;;;;;;;;;;;;;13.15;46.49;100336.17;1741951;82;20170;-79
2022/02/24 12:29:56;;;;;;;;;;;;;;;13.06;45.32;100330.05;1742774;81;20182;-78
2022/02/24 12:32:22;;;;;;;;;;;;;;;13.21;44.50;100323.56;1740240;80;21165;-79
2022/02/24 12:34:47;;;;;;;;;;;;;;;13.18;44.31;100323.09;1717478;82;20138;-80
2022/02/24 12:37:17;;;;;;;;;;;;;;;13.00;43.51;100327.24;1740190;80;20207;-79
2022/02/24 12:39:43;;;;;;;;;;;;;;;13.07;43.00;100327.73;1739941;80;20183;-79
2022/02/24 12:42:11;;;;;;;;;;;;;;;13.13;43.03;100323.59;1740586;80;20458;-79